Nemo, South Dakota
Current Conditions -  °F | °C
As of 7:58 AM on Monday 22 Dec 2014 (Local Time) from KRCA Reporting Station
Broken Clouds Broken Clouds  
Wind Chill: 28°   Ceiling: 18000
Heat Index: 39°   Visibility: 10mi
Dew Point: 22°   Wind: 30mph
Humidity: 50%   Direction: 320°NW
Pressure: 29.52"   Gusts: 37mph
Location:  44.19°N, 103.51°W
Report Text: KRCA 221458Z 32026G32KT 10SM BKN180 04/M06 A2952 RMK AO2A PK WND 32036/56 SLP014 T00411056 $
Loading
Personal Weather Stations






























Interactive Weather Map New forecast layout! Learn more

10-Day Weather Forecast

Advertisements
Track Severe Weather on mobile